sensor_id;sensor_type;location;lat;lon;timestamp;P1;durP1;ratioP1;P2;durP2;ratioP2
52946;SDS011;68773;40.400;17.260;2023-07-13T00:00:43;10.70;;;4.97;;
52946;SDS011;68773;40.400;17.260;2023-07-13T00:03:09;8.85;;;4.97;;
52946;SDS011;68773;40.400;17.260;2023-07-13T00:05:38;9.55;;;5.22;;
52946;SDS011;68773;40.400;17.260;2023-07-13T00:08:04;9.75;;;4.85;;
52946;SDS011;68773;40.400;17.260;2023-07-13T00:10:30;10.80;;;5.40;;
52946;SDS011;68773;40.400;17.260;2023-07-13T00:12:56;9.93;;;5.15;;
52946;SDS011;68773;40.400;17.260;2023-07-13T00:15:23;10.18;;;5.30;;
52946;SDS011;68773;40.400;17.260;2023-07-13T00:17:52;8.43;;;5.03;;
52946;SDS011;68773;40.400;17.260;2023-07-13T00:20:20;8.45;;;4.63;;
52946;SDS011;68773;40.400;17.260;2023-07-13T00:22:48;9.85;;;4.85;;
52946;SDS011;68773;40.400;17.260;2023-07-13T00:25:14;9.40;;;5.47;;
52946;SDS011;68773;40.400;17.260;2023-07-13T00:27:42;8.40;;;4.93;;
52946;SDS011;68773;40.400;17.260;2023-07-13T00:30:09;10.95;;;5.28;;
52946;SDS011;68773;40.400;17.260;2023-07-13T00:32:35;11.68;;;4.78;;
52946;SDS011;68773;40.400;17.260;2023-07-13T00:35:01;7.38;;;5.20;;
52946;SDS011;68773;40.400;17.260;2023-07-13T00:37:28;9.95;;;4.68;;
52946;SDS011;68773;40.400;17.260;2023-07-13T00:39:54;8.55;;;4.57;;
52946;SDS011;68773;40.400;17.260;2023-07-13T00:42:20;11.48;;;5.00;;
52946;SDS011;68773;40.400;17.260;2023-07-13T00:45:02;8.85;;;4.50;;
52946;SDS011;68773;40.400;17.260;2023-07-13T00:47:27;9.65;;;4.65;;
52946;SDS011;68773;40.400;17.260;2023-07-13T00:49:53;8.60;;;4.95;;
52946;SDS011;68773;40.400;17.260;2023-07-13T00:52:19;8.48;;;4.82;;
52946;SDS011;68773;40.400;17.260;2023-07-13T00:54:45;7.90;;;4.45;;
52946;SDS011;68773;40.400;17.260;2023-07-13T00:57:15;6.15;;;4.70;;
52946;SDS011;68773;40.400;17.260;2023-07-13T00:59:45;10.75;;;4.88;;
52946;SDS011;68773;40.400;17.260;2023-07-13T01:02:14;8.90;;;4.55;;
52946;SDS011;68773;40.400;17.260;2023-07-13T01:04:41;8.95;;;4.90;;
52946;SDS011;68773;40.400;17.260;2023-07-13T01:07:09;9.98;;;4.95;;
52946;SDS011;68773;40.400;17.260;2023-07-13T01:09:37;10.07;;;5.20;;
52946;SDS011;68773;40.400;17.260;2023-07-13T01:12:02;9.20;;;5.15;;
52946;SDS011;68773;40.400;17.260;2023-07-13T01:14:28;11.15;;;5.32;;
52946;SDS011;68773;40.400;17.260;2023-07-13T01:16:54;12.68;;;5.30;;
52946;SDS011;68773;40.400;17.260;2023-07-13T01:22:01;10.48;;;4.60;;
52946;SDS011;68773;40.400;17.260;2023-07-13T01:24:28;9.32;;;4.82;;
52946;SDS011;68773;40.400;17.260;2023-07-13T01:26:54;8.98;;;4.63;;
52946;SDS011;68773;40.400;17.260;2023-07-13T01:29:20;14.40;;;5.78;;
52946;SDS011;68773;40.400;17.260;2023-07-13T01:31:47;13.00;;;5.47;;
52946;SDS011;68773;40.400;17.260;2023-07-13T01:34:12;11.68;;;5.30;;
52946;SDS011;68773;40.400;17.260;2023-07-13T01:36:38;7.57;;;4.70;;
52946;SDS011;68773;40.400;17.260;2023-07-13T01:39:04;9.18;;;4.60;;
52946;SDS011;68773;40.400;17.260;2023-07-13T01:41:30;9.05;;;4.85;;
52946;SDS011;68773;40.400;17.260;2023-07-13T01:43:55;10.55;;;5.10;;
52946;SDS011;68773;40.400;17.260;2023-07-13T01:46:21;8.80;;;4.82;;
52946;SDS011;68773;40.400;17.260;2023-07-13T01:48:47;7.80;;;4.47;;
52946;SDS011;68773;40.400;17.260;2023-07-13T01:51:13;9.68;;;4.75;;
52946;SDS011;68773;40.400;17.260;2023-07-13T01:53:39;11.00;;;5.20;;
52946;SDS011;68773;40.400;17.260;2023-07-13T01:56:04;8.98;;;4.80;;
52946;SDS011;68773;40.400;17.260;2023-07-13T01:58:30;9.63;;;5.22;;
52946;SDS011;68773;40.400;17.260;2023-07-13T02:00:56;17.30;;;5.25;;
52946;SDS011;68773;40.400;17.260;2023-07-13T02:03:21;9.82;;;4.90;;
52946;SDS011;68773;40.400;17.260;2023-07-13T02:05:47;8.23;;;4.68;;
52946;SDS011;68773;40.400;17.260;2023-07-13T02:08:13;11.35;;;4.93;;
52946;SDS011;68773;40.400;17.260;2023-07-13T02:10:39;8.32;;;5.13;;
52946;SDS011;68773;40.400;17.260;2023-07-13T02:13:05;7.28;;;4.70;;
52946;SDS011;68773;40.400;17.260;2023-07-13T02:15:32;9.55;;;4.88;;
52946;SDS011;68773;40.400;17.260;2023-07-13T02:17:58;11.40;;;5.13;;
52946;SDS011;68773;40.400;17.260;2023-07-13T02:20:24;8.73;;;4.85;;
52946;SDS011;68773;40.400;17.260;2023-07-13T02:22:51;9.85;;;4.97;;
52946;SDS011;68773;40.400;17.260;2023-07-13T02:25:17;13.85;;;5.28;;
52946;SDS011;68773;40.400;17.260;2023-07-13T02:27:43;6.78;;;4.47;;
52946;SDS011;68773;40.400;17.260;2023-07-13T02:30:08;6.45;;;4.53;;
52946;SDS011;68773;40.400;17.260;2023-07-13T02:32:36;11.05;;;4.78;;
52946;SDS011;68773;40.400;17.260;2023-07-13T02:35:02;6.65;;;4.82;;
52946;SDS011;68773;40.400;17.260;2023-07-13T02:37:28;8.15;;;4.35;;
52946;SDS011;68773;40.400;17.260;2023-07-13T02:39:54;15.55;;;5.70;;
52946;SDS011;68773;40.400;17.260;2023-07-13T02:42:20;8.82;;;5.07;;
52946;SDS011;68773;40.400;17.260;2023-07-13T02:44:46;11.80;;;5.38;;
52946;SDS011;68773;40.400;17.260;2023-07-13T02:47:12;10.05;;;4.95;;
52946;SDS011;68773;40.400;17.260;2023-07-13T02:49:38;9.27;;;5.35;;
52946;SDS011;68773;40.400;17.260;2023-07-13T02:52:04;8.55;;;5.20;;
52946;SDS011;68773;40.400;17.260;2023-07-13T02:54:30;8.15;;;4.93;;
52946;SDS011;68773;40.400;17.260;2023-07-13T02:56:56;7.72;;;5.30;;
52946;SDS011;68773;40.400;17.260;2023-07-13T02:59:21;10.45;;;5.35;;
52946;SDS011;68773;40.400;17.260;2023-07-13T03:01:47;9.57;;;5.60;;
52946;SDS011;68773;40.400;17.260;2023-07-13T03:04:13;8.70;;;5.07;;
52946;SDS011;68773;40.400;17.260;2023-07-13T03:06:38;8.55;;;4.97;;
52946;SDS011;68773;40.400;17.260;2023-07-13T03:09:04;11.70;;;5.38;;
52946;SDS011;68773;40.400;17.260;2023-07-13T03:11:30;10.10;;;5.57;;
52946;SDS011;68773;40.400;17.260;2023-07-13T03:13:56;9.35;;;4.93;;
52946;SDS011;68773;40.400;17.260;2023-07-13T03:16:22;11.05;;;5.40;;
52946;SDS011;68773;40.400;17.260;2023-07-13T03:18:48;8.25;;;4.88;;
52946;SDS011;68773;40.400;17.260;2023-07-13T03:21:14;9.75;;;5.07;;
52946;SDS011;68773;40.400;17.260;2023-07-13T03:23:40;7.68;;;4.40;;
52946;SDS011;68773;40.400;17.260;2023-07-13T03:26:10;7.35;;;5.13;;
52946;SDS011;68773;40.400;17.260;2023-07-13T03:31:04;10.32;;;4.68;;
52946;SDS011;68773;40.400;17.260;2023-07-13T03:33:35;12.55;;;5.57;;
52946;SDS011;68773;40.400;17.260;2023-07-13T03:36:02;13.25;;;5.88;;
52946;SDS011;68773;40.400;17.260;2023-07-13T03:38:33;11.00;;;5.43;;
52946;SDS011;68773;40.400;17.260;2023-07-13T03:40:59;11.95;;;5.68;;
52946;SDS011;68773;40.400;17.260;2023-07-13T03:43:26;12.50;;;6.57;;
52946;SDS011;68773;40.400;17.260;2023-07-13T03:45:52;13.48;;;7.13;;
52946;SDS011;68773;40.400;17.260;2023-07-13T03:48:17;9.30;;;5.60;;
52946;SDS011;68773;40.400;17.260;2023-07-13T03:50:43;12.25;;;6.43;;
52946;SDS011;68773;40.400;17.260;2023-07-13T03:53:09;13.63;;;6.45;;
52946;SDS011;68773;40.400;17.260;2023-07-13T03:55:34;12.75;;;6.85;;
52946;SDS011;68773;40.400;17.260;2023-07-13T03:58:46;11.93;;;6.97;;
52946;SDS011;68773;40.400;17.260;2023-07-13T04:00:52;13.80;;;7.30;;
52946;SDS011;68773;40.400;17.260;2023-07-13T04:03:18;12.50;;;7.07;;
52946;SDS011;68773;40.400;17.260;2023-07-13T04:05:44;10.55;;;7.00;;
52946;SDS011;68773;40.400;17.260;2023-07-13T04:08:09;13.38;;;7.72;;
52946;SDS011;68773;40.400;17.260;2023-07-13T04:10:35;11.43;;;6.93;;
52946;SDS011;68773;40.400;17.260;2023-07-13T04:13:01;12.35;;;6.50;;
52946;SDS011;68773;40.400;17.260;2023-07-13T04:15:29;9.77;;;6.53;;
52946;SDS011;68773;40.400;17.260;2023-07-13T04:17:56;10.27;;;6.32;;
52946;SDS011;68773;40.400;17.260;2023-07-13T04:20:22;11.70;;;7.47;;
52946;SDS011;68773;40.400;17.260;2023-07-13T04:22:49;9.65;;;6.28;;
52946;SDS011;68773;40.400;17.260;2023-07-13T04:25:15;10.07;;;6.60;;
52946;SDS011;68773;40.400;17.260;2023-07-13T04:27:41;11.20;;;7.50;;
52946;SDS011;68773;40.400;17.260;2023-07-13T04:30:06;16.02;;;7.97;;
52946;SDS011;68773;40.400;17.260;2023-07-13T04:32:33;15.80;;;7.55;;
52946;SDS011;68773;40.400;17.260;2023-07-13T04:34:58;13.70;;;6.75;;
52946;SDS011;68773;40.400;17.260;2023-07-13T04:37:25;11.98;;;6.90;;
52946;SDS011;68773;40.400;17.260;2023-07-13T04:39:51;12.00;;;6.53;;
52946;SDS011;68773;40.400;17.260;2023-07-13T04:42:17;14.55;;;7.05;;
52946;SDS011;68773;40.400;17.260;2023-07-13T04:44:49;18.95;;;7.50;;
52946;SDS011;68773;40.400;17.260;2023-07-13T04:47:20;13.60;;;7.20;;
52946;SDS011;68773;40.400;17.260;2023-07-13T04:49:46;12.82;;;6.90;;
52946;SDS011;68773;40.400;17.260;2023-07-13T04:52:12;14.13;;;7.20;;
52946;SDS011;68773;40.400;17.260;2023-07-13T04:54:38;15.32;;;7.10;;
52946;SDS011;68773;40.400;17.260;2023-07-13T04:57:04;15.18;;;6.88;;
52946;SDS011;68773;40.400;17.260;2023-07-13T04:59:33;11.90;;;7.00;;
52946;SDS011;68773;40.400;17.260;2023-07-13T05:01:59;12.40;;;6.45;;
52946;SDS011;68773;40.400;17.260;2023-07-13T05:04:26;10.05;;;6.30;;
52946;SDS011;68773;40.400;17.260;2023-07-13T05:06:52;13.45;;;6.28;;
52946;SDS011;68773;40.400;17.260;2023-07-13T05:09:18;14.98;;;6.45;;
52946;SDS011;68773;40.400;17.260;2023-07-13T05:11:44;14.88;;;6.32;;
52946;SDS011;68773;40.400;17.260;2023-07-13T05:14:09;10.13;;;6.25;;
52946;SDS011;68773;40.400;17.260;2023-07-13T05:16:35;17.48;;;6.60;;
52946;SDS011;68773;40.400;17.260;2023-07-13T05:19:01;15.15;;;6.20;;
52946;SDS011;68773;40.400;17.260;2023-07-13T05:21:28;13.98;;;6.00;;
52946;SDS011;68773;40.400;17.260;2023-07-13T05:23:53;11.98;;;5.68;;
52946;SDS011;68773;40.400;17.260;2023-07-13T05:26:19;13.57;;;6.22;;
52946;SDS011;68773;40.400;17.260;2023-07-13T05:28:46;9.40;;;6.07;;
52946;SDS011;68773;40.400;17.260;2023-07-13T05:31:12;14.88;;;7.43;;
52946;SDS011;68773;40.400;17.260;2023-07-13T05:33:38;12.52;;;6.70;;
52946;SDS011;68773;40.400;17.260;2023-07-13T05:36:04;13.38;;;6.05;;
52946;SDS011;68773;40.400;17.260;2023-07-13T05:38:30;11.90;;;6.63;;
52946;SDS011;68773;40.400;17.260;2023-07-13T05:40:56;13.32;;;6.38;;
52946;SDS011;68773;40.400;17.260;2023-07-13T05:43:23;14.90;;;6.30;;
52946;SDS011;68773;40.400;17.260;2023-07-13T05:45:49;10.60;;;5.82;;
52946;SDS011;68773;40.400;17.260;2023-07-13T05:48:18;10.35;;;6.30;;
52946;SDS011;68773;40.400;17.260;2023-07-13T05:50:43;10.60;;;6.82;;
52946;SDS011;68773;40.400;17.260;2023-07-13T05:53:09;11.40;;;6.88;;
52946;SDS011;68773;40.400;17.260;2023-07-13T05:55:40;11.65;;;6.95;;
52946;SDS011;68773;40.400;17.260;2023-07-13T05:58:07;10.75;;;7.25;;
52946;SDS011;68773;40.400;17.260;2023-07-13T06:00:32;11.65;;;6.80;;
52946;SDS011;68773;40.400;17.260;2023-07-13T06:02:58;11.70;;;6.95;;
52946;SDS011;68773;40.400;17.260;2023-07-13T06:05:24;9.65;;;6.97;;
52946;SDS011;68773;40.400;17.260;2023-07-13T06:07:50;10.27;;;7.32;;
52946;SDS011;68773;40.400;17.260;2023-07-13T06:10:16;9.02;;;6.90;;
52946;SDS011;68773;40.400;17.260;2023-07-13T06:12:43;14.63;;;7.15;;
52946;SDS011;68773;40.400;17.260;2023-07-13T06:15:08;12.90;;;7.53;;
52946;SDS011;68773;40.400;17.260;2023-07-13T06:17:34;9.88;;;6.97;;
52946;SDS011;68773;40.400;17.260;2023-07-13T06:20:00;13.40;;;6.82;;
52946;SDS011;68773;40.400;17.260;2023-07-13T06:22:26;10.85;;;6.35;;
52946;SDS011;68773;40.400;17.260;2023-07-13T06:24:51;9.10;;;7.05;;
52946;SDS011;68773;40.400;17.260;2023-07-13T06:27:17;13.00;;;6.93;;
52946;SDS011;68773;40.400;17.260;2023-07-13T06:29:43;10.52;;;7.18;;
52946;SDS011;68773;40.400;17.260;2023-07-13T06:32:10;11.07;;;6.85;;
52946;SDS011;68773;40.400;17.260;2023-07-13T06:34:36;10.77;;;6.93;;
52946;SDS011;68773;40.400;17.260;2023-07-13T06:37:02;10.65;;;6.60;;
52946;SDS011;68773;40.400;17.260;2023-07-13T06:39:27;11.88;;;6.80;;
52946;SDS011;68773;40.400;17.260;2023-07-13T06:41:53;11.85;;;6.93;;
52946;SDS011;68773;40.400;17.260;2023-07-13T06:44:19;11.60;;;7.07;;
52946;SDS011;68773;40.400;17.260;2023-07-13T06:46:44;13.35;;;6.90;;
52946;SDS011;68773;40.400;17.260;2023-07-13T06:49:10;10.55;;;6.65;;
52946;SDS011;68773;40.400;17.260;2023-07-13T06:51:36;10.57;;;6.88;;
52946;SDS011;68773;40.400;17.260;2023-07-13T06:54:02;14.05;;;7.15;;
52946;SDS011;68773;40.400;17.260;2023-07-13T06:56:28;15.27;;;7.05;;
52946;SDS011;68773;40.400;17.260;2023-07-13T06:58:54;13.73;;;6.97;;
52946;SDS011;68773;40.400;17.260;2023-07-13T07:01:19;11.63;;;6.97;;
52946;SDS011;68773;40.400;17.260;2023-07-13T07:03:45;9.30;;;6.82;;
52946;SDS011;68773;40.400;17.260;2023-07-13T07:08:42;12.32;;;6.25;;
52946;SDS011;68773;40.400;17.260;2023-07-13T07:11:14;12.48;;;6.20;;
52946;SDS011;68773;40.400;17.260;2023-07-13T07:13:43;11.90;;;7.05;;
52946;SDS011;68773;40.400;17.260;2023-07-13T07:16:09;8.65;;;6.65;;
52946;SDS011;68773;40.400;17.260;2023-07-13T07:18:35;9.07;;;6.30;;
52946;SDS011;68773;40.400;17.260;2023-07-13T07:21:01;10.68;;;6.40;;
52946;SDS011;68773;40.400;17.260;2023-07-13T07:23:26;13.68;;;6.32;;
52946;SDS011;68773;40.400;17.260;2023-07-13T07:25:52;11.98;;;6.68;;
52946;SDS011;68773;40.400;17.260;2023-07-13T07:28:18;12.85;;;6.78;;
52946;SDS011;68773;40.400;17.260;2023-07-13T07:30:44;10.77;;;6.57;;
52946;SDS011;68773;40.400;17.260;2023-07-13T07:33:11;11.88;;;6.35;;
52946;SDS011;68773;40.400;17.260;2023-07-13T07:35:37;9.80;;;6.47;;
52946;SDS011;68773;40.400;17.260;2023-07-13T07:38:02;12.10;;;6.72;;
52946;SDS011;68773;40.400;17.260;2023-07-13T07:40:28;10.32;;;6.47;;
52946;SDS011;68773;40.400;17.260;2023-07-13T07:42:54;13.05;;;6.72;;
52946;SDS011;68773;40.400;17.260;2023-07-13T07:45:20;11.80;;;6.75;;
52946;SDS011;68773;40.400;17.260;2023-07-13T07:47:46;12.30;;;6.72;;
52946;SDS011;68773;40.400;17.260;2023-07-13T07:50:12;12.88;;;6.63;;
52946;SDS011;68773;40.400;17.260;2023-07-13T07:52:38;12.88;;;7.20;;
52946;SDS011;68773;40.400;17.260;2023-07-13T07:55:04;11.45;;;7.05;;
52946;SDS011;68773;40.400;17.260;2023-07-13T07:57:32;13.23;;;6.75;;
52946;SDS011;68773;40.400;17.260;2023-07-13T07:59:57;11.30;;;7.10;;
52946;SDS011;68773;40.400;17.260;2023-07-13T08:02:24;11.88;;;6.80;;
52946;SDS011;68773;40.400;17.260;2023-07-13T08:04:50;17.45;;;9.77;;
52946;SDS011;68773;40.400;17.260;2023-07-13T08:07:16;15.27;;;7.13;;
52946;SDS011;68773;40.400;17.260;2023-07-13T08:09:42;12.45;;;6.82;;
52946;SDS011;68773;40.400;17.260;2023-07-13T08:12:08;14.98;;;6.57;;
52946;SDS011;68773;40.400;17.260;2023-07-13T08:14:34;12.13;;;7.00;;
52946;SDS011;68773;40.400;17.260;2023-07-13T08:17:00;9.88;;;6.80;;
52946;SDS011;68773;40.400;17.260;2023-07-13T08:19:25;14.00;;;7.45;;
52946;SDS011;68773;40.400;17.260;2023-07-13T08:21:51;14.70;;;7.20;;
52946;SDS011;68773;40.400;17.260;2023-07-13T08:24:17;10.55;;;7.18;;
52946;SDS011;68773;40.400;17.260;2023-07-13T08:26:44;12.00;;;7.45;;
52946;SDS011;68773;40.400;17.260;2023-07-13T08:29:11;14.93;;;7.72;;
52946;SDS011;68773;40.400;17.260;2023-07-13T08:31:37;9.77;;;7.47;;
52946;SDS011;68773;40.400;17.260;2023-07-13T08:34:02;16.00;;;7.85;;
52946;SDS011;68773;40.400;17.260;2023-07-13T08:36:28;13.23;;;7.70;;
52946;SDS011;68773;40.400;17.260;2023-07-13T08:38:54;11.77;;;7.20;;
52946;SDS011;68773;40.400;17.260;2023-07-13T08:41:20;11.85;;;7.15;;
52946;SDS011;68773;40.400;17.260;2023-07-13T08:43:51;10.90;;;6.35;;
52946;SDS011;68773;40.400;17.260;2023-07-13T08:46:37;12.93;;;6.53;;
52946;SDS011;68773;40.400;17.260;2023-07-13T08:49:09;21.98;;;7.20;;
52946;SDS011;68773;40.400;17.260;2023-07-13T08:54:05;16.70;;;7.40;;
52946;SDS011;68773;40.400;17.260;2023-07-13T08:57:10;10.23;;;7.03;;
52946;SDS011;68773;40.400;17.260;2023-07-13T08:59:40;10.85;;;6.88;;
52946;SDS011;68773;40.400;17.260;2023-07-13T09:04:58;13.55;;;6.90;;
52946;SDS011;68773;40.400;17.260;2023-07-13T09:15:31;9.18;;;6.68;;
52946;SDS011;68773;40.400;17.260;2023-07-13T09:18:04;10.00;;;6.40;;
52946;SDS011;68773;40.400;17.260;2023-07-13T09:20:36;11.23;;;6.60;;
52946;SDS011;68773;40.400;17.260;2023-07-13T09:23:09;9.73;;;6.18;;
52946;SDS011;68773;40.400;17.260;2023-07-13T09:25:40;10.98;;;6.60;;
52946;SDS011;68773;40.400;17.260;2023-07-13T09:30:46;12.00;;;6.38;;
52946;SDS011;68773;40.400;17.260;2023-07-13T09:33:19;8.70;;;6.68;;
52946;SDS011;68773;40.400;17.260;2023-07-13T09:35:46;9.07;;;6.32;;
52946;SDS011;68773;40.400;17.260;2023-07-13T09:38:13;11.00;;;6.35;;
52946;SDS011;68773;40.400;17.260;2023-07-13T09:40:43;14.70;;;7.60;;
52946;SDS011;68773;40.400;17.260;2023-07-13T09:43:13;13.75;;;6.80;;
52946;SDS011;68773;40.400;17.260;2023-07-13T09:45:41;15.05;;;6.55;;
52946;SDS011;68773;40.400;17.260;2023-07-13T09:48:12;12.57;;;6.82;;
52946;SDS011;68773;40.400;17.260;2023-07-13T09:50:40;9.57;;;6.22;;
52946;SDS011;68773;40.400;17.260;2023-07-13T09:55:40;11.13;;;6.53;;
52946;SDS011;68773;40.400;17.260;2023-07-13T09:58:18;12.25;;;7.25;;
52946;SDS011;68773;40.400;17.260;2023-07-13T10:03:31;13.25;;;7.32;;
52946;SDS011;68773;40.400;17.260;2023-07-13T10:06:36;16.92;;;7.95;;
52946;SDS011;68773;40.400;17.260;2023-07-13T10:08:56;16.35;;;8.15;;
52946;SDS011;68773;40.400;17.260;2023-07-13T10:11:27;11.50;;;7.45;;
52946;SDS011;68773;40.400;17.260;2023-07-13T10:13:55;11.60;;;6.93;;
52946;SDS011;68773;40.400;17.260;2023-07-13T10:16:23;16.88;;;7.38;;
52946;SDS011;68773;40.400;17.260;2023-07-13T10:18:58;13.75;;;7.90;;
52946;SDS011;68773;40.400;17.260;2023-07-13T10:21:27;12.48;;;6.95;;
52946;SDS011;68773;40.400;17.260;2023-07-13T10:24:05;13.27;;;6.68;;
52946;SDS011;68773;40.400;17.260;2023-07-13T10:26:45;11.35;;;6.47;;
52946;SDS011;68773;40.400;17.260;2023-07-13T10:29:16;10.63;;;6.25;;
52946;SDS011;68773;40.400;17.260;2023-07-13T10:31:44;12.70;;;6.63;;
52946;SDS011;68773;40.400;17.260;2023-07-13T10:34:11;10.82;;;6.75;;
52946;SDS011;68773;40.400;17.260;2023-07-13T10:36:47;11.52;;;6.30;;
52946;SDS011;68773;40.400;17.260;2023-07-13T10:39:23;9.00;;;6.57;;
52946;SDS011;68773;40.400;17.260;2023-07-13T10:41:53;13.27;;;7.45;;
52946;SDS011;68773;40.400;17.260;2023-07-13T10:44:26;11.98;;;6.65;;
52946;SDS011;68773;40.400;17.260;2023-07-13T10:47:05;9.25;;;6.05;;
52946;SDS011;68773;40.400;17.260;2023-07-13T10:49:39;12.45;;;6.63;;
52946;SDS011;68773;40.400;17.260;2023-07-13T10:52:34;11.48;;;6.75;;
52946;SDS011;68773;40.400;17.260;2023-07-13T10:55:04;10.32;;;6.55;;
52946;SDS011;68773;40.400;17.260;2023-07-13T10:57:32;12.45;;;7.28;;
52946;SDS011;68773;40.400;17.260;2023-07-13T11:00:14;16.35;;;8.00;;
52946;SDS011;68773;40.400;17.260;2023-07-13T11:02:42;12.18;;;7.30;;
52946;SDS011;68773;40.400;17.260;2023-07-13T11:05:22;15.90;;;7.95;;
52946;SDS011;68773;40.400;17.260;2023-07-13T11:07:55;13.88;;;8.18;;
52946;SDS011;68773;40.400;17.260;2023-07-13T11:10:49;11.85;;;8.70;;
52946;SDS011;68773;40.400;17.260;2023-07-13T11:13:36;10.82;;;8.07;;
52946;SDS011;68773;40.400;17.260;2023-07-13T11:16:46;12.43;;;8.02;;
52946;SDS011;68773;40.400;17.260;2023-07-13T11:24:47;15.23;;;8.07;;
52946;SDS011;68773;40.400;17.260;2023-07-13T11:27:22;12.55;;;7.97;;
52946;SDS011;68773;40.400;17.260;2023-07-13T11:30:09;12.82;;;7.43;;
52946;SDS011;68773;40.400;17.260;2023-07-13T11:33:04;11.98;;;6.72;;
52946;SDS011;68773;40.400;17.260;2023-07-13T11:38:30;10.77;;;7.65;;
52946;SDS011;68773;40.400;17.260;2023-07-13T11:41:15;12.60;;;7.90;;
52946;SDS011;68773;40.400;17.260;2023-07-13T11:43:49;12.30;;;7.75;;
52946;SDS011;68773;40.400;17.260;2023-07-13T11:46:25;14.30;;;7.63;;
52946;SDS011;68773;40.400;17.260;2023-07-13T11:48:52;12.20;;;7.32;;
52946;SDS011;68773;40.400;17.260;2023-07-13T11:53:48;11.93;;;6.03;;
52946;SDS011;68773;40.400;17.260;2023-07-13T11:56:16;12.20;;;6.18;;
52946;SDS011;68773;40.400;17.260;2023-07-13T11:58:42;12.07;;;6.13;;
52946;SDS011;68773;40.400;17.260;2023-07-13T12:01:22;14.93;;;6.10;;
52946;SDS011;68773;40.400;17.260;2023-07-13T12:03:50;11.63;;;6.57;;
52946;SDS011;68773;40.400;17.260;2023-07-13T12:06:26;13.45;;;6.93;;
52946;SDS011;68773;40.400;17.260;2023-07-13T12:08:57;10.88;;;6.85;;
52946;SDS011;68773;40.400;17.260;2023-07-13T12:11:24;12.25;;;6.65;;
52946;SDS011;68773;40.400;17.260;2023-07-13T12:13:50;18.95;;;7.25;;
52946;SDS011;68773;40.400;17.260;2023-07-13T12:16:17;12.75;;;7.03;;
52946;SDS011;68773;40.400;17.260;2023-07-13T12:18:55;11.85;;;7.20;;
52946;SDS011;68773;40.400;17.260;2023-07-13T12:21:23;10.98;;;6.97;;
52946;SDS011;68773;40.400;17.260;2023-07-13T12:23:56;9.80;;;7.22;;
52946;SDS011;68773;40.400;17.260;2023-07-13T12:26:22;11.40;;;6.38;;
52946;SDS011;68773;40.400;17.260;2023-07-13T12:28:49;11.35;;;7.03;;
52946;SDS011;68773;40.400;17.260;2023-07-13T12:34:22;13.40;;;7.07;;
52946;SDS011;68773;40.400;17.260;2023-07-13T12:39:45;14.02;;;6.05;;
52946;SDS011;68773;40.400;17.260;2023-07-13T12:44:42;9.68;;;6.38;;
52946;SDS011;68773;40.400;17.260;2023-07-13T12:47:11;11.10;;;6.60;;
52946;SDS011;68773;40.400;17.260;2023-07-13T12:52:10;12.52;;;6.22;;
52946;SDS011;68773;40.400;17.260;2023-07-13T12:54:39;12.90;;;6.43;;
52946;SDS011;68773;40.400;17.260;2023-07-13T12:57:05;12.50;;;6.30;;
52946;SDS011;68773;40.400;17.260;2023-07-13T12:59:38;11.75;;;5.72;;
52946;SDS011;68773;40.400;17.260;2023-07-13T13:02:15;9.80;;;5.57;;
52946;SDS011;68773;40.400;17.260;2023-07-13T13:04:56;9.73;;;5.32;;
52946;SDS011;68773;40.400;17.260;2023-07-13T13:07:23;9.95;;;5.13;;
52946;SDS011;68773;40.400;17.260;2023-07-13T13:09:50;8.68;;;4.50;;
52946;SDS011;68773;40.400;17.260;2023-07-13T13:12:16;13.30;;;5.85;;
52946;SDS011;68773;40.400;17.260;2023-07-13T13:14:42;8.60;;;5.50;;
52946;SDS011;68773;40.400;17.260;2023-07-13T13:17:18;11.52;;;5.20;;
52946;SDS011;68773;40.400;17.260;2023-07-13T13:19:45;11.65;;;5.50;;
52946;SDS011;68773;40.400;17.260;2023-07-13T13:22:11;12.55;;;5.65;;
52946;SDS011;68773;40.400;17.260;2023-07-13T13:24:37;9.73;;;5.10;;
52946;SDS011;68773;40.400;17.260;2023-07-13T13:27:03;9.10;;;5.55;;
52946;SDS011;68773;40.400;17.260;2023-07-13T13:29:34;13.10;;;5.40;;
52946;SDS011;68773;40.400;17.260;2023-07-13T13:32:03;11.38;;;5.35;;
52946;SDS011;68773;40.400;17.260;2023-07-13T13:34:30;12.75;;;6.00;;
52946;SDS011;68773;40.400;17.260;2023-07-13T13:36:56;8.65;;;5.85;;
52946;SDS011;68773;40.400;17.260;2023-07-13T13:39:26;11.75;;;5.57;;
52946;SDS011;68773;40.400;17.260;2023-07-13T13:41:57;10.85;;;5.88;;
52946;SDS011;68773;40.400;17.260;2023-07-13T13:44:23;11.63;;;5.72;;
52946;SDS011;68773;40.400;17.260;2023-07-13T13:46:50;11.65;;;5.38;;
52946;SDS011;68773;40.400;17.260;2023-07-13T13:49:20;10.73;;;5.22;;
52946;SDS011;68773;40.400;17.260;2023-07-13T13:51:48;9.55;;;5.45;;
52946;SDS011;68773;40.400;17.260;2023-07-13T13:54:15;12.18;;;5.72;;
52946;SDS011;68773;40.400;17.260;2023-07-13T13:56:43;9.40;;;4.95;;
52946;SDS011;68773;40.400;17.260;2023-07-13T13:59:10;8.30;;;4.85;;
52946;SDS011;68773;40.400;17.260;2023-07-13T14:01:36;11.68;;;4.85;;
52946;SDS011;68773;40.400;17.260;2023-07-13T14:04:03;11.48;;;4.97;;
52946;SDS011;68773;40.400;17.260;2023-07-13T14:06:30;9.02;;;4.80;;
52946;SDS011;68773;40.400;17.260;2023-07-13T14:08:57;13.40;;;4.95;;
52946;SDS011;68773;40.400;17.260;2023-07-13T14:11:23;9.90;;;4.53;;
52946;SDS011;68773;40.400;17.260;2023-07-13T14:13:58;10.07;;;4.93;;
52946;SDS011;68773;40.400;17.260;2023-07-13T14:16:29;13.82;;;4.88;;
52946;SDS011;68773;40.400;17.260;2023-07-13T14:18:57;10.52;;;4.78;;
52946;SDS011;68773;40.400;17.260;2023-07-13T14:21:25;9.88;;;4.35;;
52946;SDS011;68773;40.400;17.260;2023-07-13T14:23:53;14.45;;;4.70;;
52946;SDS011;68773;40.400;17.260;2023-07-13T14:26:20;11.40;;;4.65;;
52946;SDS011;68773;40.400;17.260;2023-07-13T14:28:50;10.18;;;4.45;;
52946;SDS011;68773;40.400;17.260;2023-07-13T14:31:20;10.07;;;4.80;;
52946;SDS011;68773;40.400;17.260;2023-07-13T14:33:47;13.52;;;5.53;;
52946;SDS011;68773;40.400;17.260;2023-07-13T14:38:45;17.02;;;5.18;;
52946;SDS011;68773;40.400;17.260;2023-07-13T14:41:10;15.23;;;5.35;;
52946;SDS011;68773;40.400;17.260;2023-07-13T14:43:36;12.10;;;4.40;;
52946;SDS011;68773;40.400;17.260;2023-07-13T14:46:02;11.27;;;4.70;;
52946;SDS011;68773;40.400;17.260;2023-07-13T14:48:29;11.88;;;4.70;;
52946;SDS011;68773;40.400;17.260;2023-07-13T14:50:56;10.55;;;4.47;;
52946;SDS011;68773;40.400;17.260;2023-07-13T14:53:24;8.50;;;4.32;;
52946;SDS011;68773;40.400;17.260;2023-07-13T14:55:52;14.07;;;4.97;;
52946;SDS011;68773;40.400;17.260;2023-07-13T14:58:18;13.07;;;5.10;;
52946;SDS011;68773;40.400;17.260;2023-07-13T15:00:44;6.22;;;4.18;;
52946;SDS011;68773;40.400;17.260;2023-07-13T15:03:19;14.00;;;4.45;;
52946;SDS011;68773;40.400;17.260;2023-07-13T15:05:48;10.15;;;4.10;;
52946;SDS011;68773;40.400;17.260;2023-07-13T15:08:14;15.48;;;5.32;;
52946;SDS011;68773;40.400;17.260;2023-07-13T15:10:40;11.77;;;4.70;;
52946;SDS011;68773;40.400;17.260;2023-07-13T15:13:16;10.52;;;4.60;;
52946;SDS011;68773;40.400;17.260;2023-07-13T15:15:43;8.95;;;4.53;;
52946;SDS011;68773;40.400;17.260;2023-07-13T15:18:16;14.02;;;4.82;;
52946;SDS011;68773;40.400;17.260;2023-07-13T15:20:44;12.60;;;4.78;;
52946;SDS011;68773;40.400;17.260;2023-07-13T15:23:12;10.40;;;4.53;;
52946;SDS011;68773;40.400;17.260;2023-07-13T15:25:40;11.70;;;4.82;;